Time;durP1;ratioP1;P1;durP2;ratioP2;P2;SDS_P1;SDS_P2;PMS_P1;PMS_P2;Temp;Humidity;BMP_temperature;BMP_pressure;BME280_temperature;BME280_humidity;BME280_pressure;Samples;Min_cycle;Max_cycle;Signal;HPM_P1;HPM_P2
2024/01/23 00:01:51;;;;;;;35.78;34.33;;;;;;;;;;4217730;28;20052;-58
2024/01/23 00:03:53;;;;;;;35.40;34.28;;;;;;;;;;4232644;28;20056;-58
2024/01/23 00:05:54;;;;;;;33.73;32.20;;;;;;;;;;4233108;28;20459;-58
2024/01/23 00:07:56;;;;;;;34.90;33.72;;;;;;;;;;4233226;28;20277;-58
2024/01/23 00:09:58;;;;;;;33.92;32.92;;;;;;;;;;4232244;28;20395;-58
2024/01/23 00:12:01;;;;;;;32.85;31.80;;;;;;;;;;4231535;28;20040;-58
2024/01/23 00:14:03;;;;;;;34.88;33.63;;;;;;;;;;4227846;28;20040;-58
2024/01/23 00:16:05;;;;;;;36.13;34.08;;;;;;;;;;4215501;28;20032;-58
2024/01/23 00:18:07;;;;;;;33.53;32.35;;;;;;;;;;4215838;28;20036;-58
2024/01/23 00:20:10;;;;;;;34.15;32.97;;;;;;;;;;4215827;28;20040;-58
2024/01/23 00:22:11;;;;;;;32.90;32.08;;;;;;;;;;4215905;28;20047;-58
2024/01/23 00:24:13;;;;;;;32.33;31.33;;;;;;;;;;4215476;28;20255;-58
2024/01/23 00:26:15;;;;;;;32.92;31.38;;;;;;;;;;4215761;28;20403;-58
2024/01/23 00:28:16;;;;;;;33.95;32.95;;;;;;;;;;4215786;28;20141;-61
2024/01/23 00:30:18;;;;;;;32.25;31.35;;;;;;;;;;4227427;28;20139;-61
2024/01/23 00:32:19;;;;;;;33.42;32.20;;;;;;;;;;4232507;28;20036;-61
2024/01/23 00:34:21;;;;;;;30.05;29.23;;;;;;;;;;4232355;28;20495;-61
2024/01/23 00:36:23;;;;;;;31.27;30.33;;;;;;;;;;4232522;28;20542;-61
2024/01/23 00:38:24;;;;;;;31.57;30.47;;;;;;;;;;4232595;28;20036;-61
2024/01/23 00:40:26;;;;;;;32.03;31.13;;;;;;;;;;4232366;28;20039;-61
2024/01/23 00:42:28;;;;;;;35.57;34.23;;;;;;;;;;4220690;28;20047;-61
2024/01/23 00:44:30;;;;;;;33.70;32.42;;;;;;;;;;4232268;28;20618;-61
2024/01/23 00:46:31;;;;;;;31.88;30.83;;;;;;;;;;4232205;28;20074;-61
2024/01/23 00:48:33;;;;;;;34.33;32.93;;;;;;;;;;4232222;28;20126;-61
2024/01/23 00:50:35;;;;;;;33.80;32.40;;;;;;;;;;4231941;28;20067;-61
2024/01/23 00:52:36;;;;;;;34.47;33.08;;;;;;;;;;4232186;28;20464;-61
2024/01/23 00:54:38;;;;;;;33.08;31.98;;;;;;;;;;4232156;28;20036;-61
2024/01/23 00:56:43;;;;;;;33.13;31.90;;;;;;;;;;4232193;28;20063;-61
2024/01/23 00:58:45;;;;;;;35.75;34.53;;;;;;;;;;4231854;28;20039;-61
2024/01/23 01:00:46;;;;;;;33.90;32.53;;;;;;;;;;4231707;28;20050;-61
2024/01/23 01:02:48;;;;;;;35.38;33.92;;;;;;;;;;4224863;28;20441;-61
2024/01/23 01:04:50;;;;;;;31.63;30.63;;;;;;;;;;4230507;28;20104;-62
2024/01/23 01:06:52;;;;;;;35.47;34.08;;;;;;;;;;4231943;28;20052;-61
2024/01/23 01:08:53;;;;;;;35.28;33.90;;;;;;;;;;4231518;28;20044;-61
2024/01/23 01:10:55;;;;;;;31.53;30.40;;;;;;;;;;4221421;28;20102;-61
2024/01/23 01:12:57;;;;;;;36.65;35.05;;;;;;;;;;4214757;28;20054;-61
2024/01/23 01:15:00;;;;;;;33.50;32.50;;;;;;;;;;4215016;28;20066;-62
2024/01/23 01:17:01;;;;;;;30.75;29.80;;;;;;;;;;4214900;28;20039;-62
2024/01/23 01:19:03;;;;;;;36.22;35.22;;;;;;;;;;4214842;28;20420;-61
2024/01/23 01:21:06;;;;;;;33.10;31.63;;;;;;;;;;4214644;28;20545;-61
2024/01/23 01:23:07;;;;;;;35.00;33.65;;;;;;;;;;4214656;28;20109;-62
2024/01/23 01:25:09;;;;;;;35.13;33.45;;;;;;;;;;4214549;28;20113;-62
2024/01/23 01:27:11;;;;;;;33.03;31.70;;;;;;;;;;4214815;28;20055;-61
2024/01/23 01:29:12;;;;;;;34.78;33.40;;;;;;;;;;4216763;28;20558;-62
2024/01/23 01:31:14;;;;;;;36.25;34.70;;;;;;;;;;4231224;28;20073;-61
2024/01/23 01:33:17;;;;;;;34.28;33.17;;;;;;;;;;4231530;28;20036;-62
2024/01/23 01:35:19;;;;;;;34.45;32.90;;;;;;;;;;4231144;28;20407;-62
2024/01/23 01:37:20;;;;;;;32.80;31.80;;;;;;;;;;4227726;28;20052;-62
2024/01/23 01:39:22;;;;;;;34.55;33.03;;;;;;;;;;4214480;28;20036;-61
2024/01/23 01:41:24;;;;;;;33.65;32.60;;;;;;;;;;4226104;28;20047;-62
2024/01/23 01:43:26;;;;;;;33.22;32.05;;;;;;;;;;4231376;28;20044;-62
2024/01/23 01:45:28;;;;;;;;;;;;;;;;;;4231684;28;20049;-61
2024/01/23 01:47:29;;;;;;;32.78;31.58;;;;;;;;;;4231417;28;19927;-61
2024/01/23 01:49:31;;;;;;;33.75;32.90;;;;;;;;;;4231086;28;20419;-61
2024/01/23 01:51:33;;;;;;;37.22;36.13;;;;;;;;;;4230896;28;20035;-61
2024/01/23 01:53:35;;;;;;;33.78;32.65;;;;;;;;;;4231272;28;20040;-62
2024/01/23 01:55:37;;;;;;;33.63;32.70;;;;;;;;;;4231257;28;20036;-61
2024/01/23 01:57:39;;;;;;;33.75;32.85;;;;;;;;;;4231108;28;20044;-61
2024/01/23 01:59:41;;;;;;;33.75;32.55;;;;;;;;;;4219735;28;20184;-62
2024/01/23 02:01:43;;;;;;;35.47;33.63;;;;;;;;;;4238134;22;20052;-72
2024/01/23 02:03:44;;;;;;;33.40;32.30;;;;;;;;;;4231326;28;20363;-71
2024/01/23 02:05:46;;;;;;;34.28;33.22;;;;;;;;;;4213074;28;20048;-71
2024/01/23 02:07:48;;;;;;;31.30;30.33;;;;;;;;;;4213124;28;20040;-71
2024/01/23 02:09:50;;;;;;;30.45;29.65;;;;;;;;;;4206349;28;20041;-71
2024/01/23 02:11:55;;;;;;;33.38;32.45;;;;;;;;;;4214149;28;20040;-70
2024/01/23 02:13:57;;;;;;;36.60;35.50;;;;;;;;;;4214247;28;20071;-72
2024/01/23 02:15:59;;;;;;;32.20;30.95;;;;;;;;;;4214234;28;20040;-72
2024/01/23 02:18:02;;;;;;;33.25;32.25;;;;;;;;;;4179707;28;20207;-71
2024/01/23 02:20:05;;;;;;;32.10;31.20;;;;;;;;;;4196376;28;20037;-71
2024/01/23 02:22:07;;;;;;;34.88;33.92;;;;;;;;;;4213781;28;20560;-71
2024/01/23 02:24:09;;;;;;;35.08;33.80;;;;;;;;;;4214109;28;20097;-71
2024/01/23 02:26:14;;;;;;;36.60;35.38;;;;;;;;;;4195950;28;20040;-71
2024/01/23 02:28:16;;;;;;;33.92;33.00;;;;;;;;;;4214221;28;20044;-71
2024/01/23 02:30:19;;;;;;;35.13;33.97;;;;;;;;;;4224521;28;20073;-71
2024/01/23 02:32:21;;;;;;;33.80;32.80;;;;;;;;;;4230784;28;20067;-71
2024/01/23 02:34:24;;;;;;;35.03;33.92;;;;;;;;;;4230821;28;20036;-71
2024/01/23 02:36:27;;;;;;;35.75;34.33;;;;;;;;;;4230778;28;20051;-71
2024/01/23 02:38:28;;;;;;;31.35;30.45;;;;;;;;;;4195869;28;20045;-72
2024/01/23 02:40:31;;;;;;;34.20;32.87;;;;;;;;;;4231790;28;20040;-71
2024/01/23 02:42:32;;;;;;;33.30;32.05;;;;;;;;;;4216044;28;20285;-71
2024/01/23 02:44:35;;;;;;;33.90;32.85;;;;;;;;;;4234425;28;20044;-71
2024/01/23 02:46:36;;;;;;;34.97;33.60;;;;;;;;;;4234443;28;20039;-71
2024/01/23 02:48:38;;;;;;;33.35;32.38;;;;;;;;;;4234452;28;20113;-72
2024/01/23 02:50:42;;;;;;;34.75;33.58;;;;;;;;;;4234180;28;20035;-71
2024/01/23 02:52:44;;;;;;;36.90;35.83;;;;;;;;;;4234044;28;20047;-71
2024/01/23 02:54:46;;;;;;;31.30;30.17;;;;;;;;;;4234326;28;20081;-71
2024/01/23 02:56:51;;;;;;;32.35;31.35;;;;;;;;;;4233956;28;20047;-71
2024/01/23 02:58:53;;;;;;;32.83;31.75;;;;;;;;;;4233898;28;20446;-71
2024/01/23 03:00:54;;;;;;;30.00;29.30;;;;;;;;;;4233690;28;20043;-71
2024/01/23 03:02:56;;;;;;;33.60;32.60;;;;;;;;;;4216906;28;20574;-71
2024/01/23 03:04:58;;;;;;;33.28;32.35;;;;;;;;;;4200413;28;20043;-70
2024/01/23 03:07:03;;;;;;;32.50;31.15;;;;;;;;;;4200361;28;20040;-71
2024/01/23 03:09:06;;;;;;;33.28;32.38;;;;;;;;;;4208935;28;20082;-72
2024/01/23 03:11:08;;;;;;;33.70;32.50;;;;;;;;;;4198535;28;20044;-71
2024/01/23 03:13:10;;;;;;;35.08;33.95;;;;;;;;;;4216773;28;20067;-71
2024/01/23 03:15:12;;;;;;;35.42;34.08;;;;;;;;;;4199023;28;20047;-71
2024/01/23 03:17:14;;;;;;;30.63;29.50;;;;;;;;;;4216956;28;20094;-72
2024/01/23 03:19:16;;;;;;;34.63;33.80;;;;;;;;;;4216666;28;20496;-68
2024/01/23 03:21:18;;;;;;;33.67;32.30;;;;;;;;;;4216244;28;20480;-68
2024/01/23 03:23:20;;;;;;;34.53;33.53;;;;;;;;;;4215416;28;20040;-68
2024/01/23 03:25:22;;;;;;;35.47;34.45;;;;;;;;;;4197234;28;20040;-68
2024/01/23 03:27:24;;;;;;;32.57;31.60;;;;;;;;;;4180361;28;20044;-69
2024/01/23 03:29:27;;;;;;;33.80;32.47;;;;;;;;;;4213991;28;20286;-67
2024/01/23 03:31:29;;;;;;;32.90;31.65;;;;;;;;;;4180494;28;20052;-68
2024/01/23 03:33:31;;;;;;;32.30;31.40;;;;;;;;;;4180638;28;20037;-69
2024/01/23 03:35:33;;;;;;;31.40;30.38;;;;;;;;;;4180209;28;20060;-68
2024/01/23 03:37:35;;;;;;;33.58;32.67;;;;;;;;;;4210068;28;20044;-68
2024/01/23 03:39:39;;;;;;;36.03;34.78;;;;;;;;;;4216485;28;20044;-68
2024/01/23 03:41:41;;;;;;;33.65;32.38;;;;;;;;;;4216062;28;20044;-68
2024/01/23 03:43:42;;;;;;;34.85;33.63;;;;;;;;;;4216194;28;20123;-69
2024/01/23 03:45:44;;;;;;;35.23;34.03;;;;;;;;;;4198107;28;20047;-68
2024/01/23 03:47:46;;;;;;;35.13;33.78;;;;;;;;;;4216559;28;20047;-69
2024/01/23 03:49:48;;;;;;;35.33;34.22;;;;;;;;;;4201244;28;20453;-68
2024/01/23 03:51:50;;;;;;;34.30;32.90;;;;;;;;;;4180906;28;20051;-69
2024/01/23 03:53:52;;;;;;;31.63;30.77;;;;;;;;;;4165104;28;20045;-69
2024/01/23 03:55:54;;;;;;;31.23;30.43;;;;;;;;;;4203988;28;20063;-68
2024/01/23 03:57:55;;;;;;;35.67;34.60;;;;;;;;;;4216361;28;20040;-68
2024/01/23 03:59:57;;;;;;;31.48;30.48;;;;;;;;;;4204142;28;20301;-68
2024/01/23 04:01:59;;;;;;;36.92;35.85;;;;;;;;;;4201521;28;20406;-69
2024/01/23 04:04:00;;;;;;;35.27;33.60;;;;;;;;;;4215985;28;20044;-67
2024/01/23 04:06:02;;;;;;;36.00;34.97;;;;;;;;;;4216310;28;20296;-68
2024/01/23 04:08:05;;;;;;;35.40;34.20;;;;;;;;;;4215785;28;20309;-68
2024/01/23 04:10:08;;;;;;;33.93;32.53;;;;;;;;;;4215994;28;20097;-67
2024/01/23 04:12:10;;;;;;;36.50;35.17;;;;;;;;;;4181225;28;20291;-68
2024/01/23 04:14:12;;;;;;;36.22;34.88;;;;;;;;;;4216092;28;20115;-68
2024/01/23 04:16:14;;;;;;;36.33;35.00;;;;;;;;;;4215730;28;20063;-68
2024/01/23 04:18:16;;;;;;;33.77;32.57;;;;;;;;;;4216038;28;20047;-68
2024/01/23 04:20:18;;;;;;;34.65;33.30;;;;;;;;;;4197746;28;20056;-67
2024/01/23 04:22:20;;;;;;;42.78;40.25;;;;;;;;;;4216174;28;20044;-68
2024/01/23 04:24:22;;;;;;;34.55;33.00;;;;;;;;;;4215969;28;20043;-68
2024/01/23 04:26:24;;;;;;;34.45;33.10;;;;;;;;;;4208756;28;20123;-68
2024/01/23 04:28:26;;;;;;;34.67;33.50;;;;;;;;;;4199381;28;20048;-68
2024/01/23 04:30:28;;;;;;;33.85;32.67;;;;;;;;;;4212514;28;20040;-72
2024/01/23 04:32:30;;;;;;;30.45;29.50;;;;;;;;;;4197480;28;20399;-72
2024/01/23 04:34:32;;;;;;;35.90;34.75;;;;;;;;;;4188778;28;20060;-72
2024/01/23 04:36:34;;;;;;;33.50;32.53;;;;;;;;;;4183822;28;20436;-72
2024/01/23 04:38:37;;;;;;;30.08;28.65;;;;;;;;;;4215753;28;20039;-72
2024/01/23 04:40:39;;;;;;;35.58;34.05;;;;;;;;;;4213853;28;20036;-72
2024/01/23 04:42:41;;;;;;;33.10;31.85;;;;;;;;;;4215611;28;20060;-72
2024/01/23 04:44:43;;;;;;;33.83;32.63;;;;;;;;;;4215471;28;20036;-72
2024/01/23 04:46:45;;;;;;;34.17;32.95;;;;;;;;;;4197206;28;20524;-72
2024/01/23 04:48:47;;;;;;;31.10;29.95;;;;;;;;;;4215558;28;20543;-72
2024/01/23 04:50:48;;;;;;;30.70;29.88;;;;;;;;;;4197185;28;20057;-72
2024/01/23 04:52:56;;;;;;;35.60;34.13;;;;;;;;;;4215267;28;20406;-68
2024/01/23 04:54:57;;;;;;;34.25;33.05;;;;;;;;;;4213709;28;20042;-68
2024/01/23 04:56:59;;;;;;;36.13;34.80;;;;;;;;;;4198655;28;20047;-69
2024/01/23 04:59:01;;;;;;;35.75;34.35;;;;;;;;;;4198357;28;20033;-67
2024/01/23 05:01:03;;;;;;;34.35;33.35;;;;;;;;;;4173721;28;20132;-68
2024/01/23 05:03:05;;;;;;;32.65;31.67;;;;;;;;;;4174821;28;20041;-68
2024/01/23 05:05:07;;;;;;;35.40;34.35;;;;;;;;;;4182020;28;20045;-67
2024/01/23 05:07:09;;;;;;;33.15;31.63;;;;;;;;;;4182050;28;20053;-68
2024/01/23 05:09:11;;;;;;;31.47;30.57;;;;;;;;;;4154032;28;20101;-67
2024/01/23 05:11:13;;;;;;;32.67;31.70;;;;;;;;;;4192235;28;20329;-67
2024/01/23 05:13:14;;;;;;;33.60;32.50;;;;;;;;;;4181913;28;20124;-67
2024/01/23 05:15:16;;;;;;;31.38;30.13;;;;;;;;;;4177631;28;20037;-68
2024/01/23 05:17:18;;;;;;;33.33;32.08;;;;;;;;;;4165433;28;20041;-67
2024/01/23 05:19:22;;;;;;;30.37;29.33;;;;;;;;;;4165231;28;20042;-68
2024/01/23 05:21:24;;;;;;;37.05;35.53;;;;;;;;;;4164838;28;20045;-67
2024/01/23 05:23:26;;;;;;;34.88;33.47;;;;;;;;;;4178407;28;20416;-68
2024/01/23 05:25:27;;;;;;;32.07;31.17;;;;;;;;;;4180833;28;20039;-68
2024/01/23 05:27:29;;;;;;;34.03;32.88;;;;;;;;;;4179891;28;20291;-69
2024/01/23 05:29:31;;;;;;;33.37;32.07;;;;;;;;;;4170427;28;20049;-68
2024/01/23 05:31:32;;;;;;;35.45;33.90;;;;;;;;;;4181287;28;20056;-67
2024/01/23 05:33:35;;;;;;;33.47;32.28;;;;;;;;;;4181232;28;20075;-68
2024/01/23 05:35:37;;;;;;;33.20;32.10;;;;;;;;;;4181490;28;20038;-67
2024/01/23 05:37:38;;;;;;;27.93;27.23;;;;;;;;;;4181539;28;20041;-67
2024/01/23 05:39:40;;;;;;;29.42;28.73;;;;;;;;;;4167603;28;20096;-68
2024/01/23 05:41:45;;;;;;;31.13;30.02;;;;;;;;;;4164912;28;20405;-67
2024/01/23 05:43:46;;;;;;;32.80;31.98;;;;;;;;;;4164856;28;20037;-68
2024/01/23 05:45:49;;;;;;;33.05;32.05;;;;;;;;;;4171187;28;20056;-68
2024/01/23 05:47:51;;;;;;;33.38;32.00;;;;;;;;;;4181349;28;20382;-67
2024/01/23 05:49:53;;;;;;;32.43;31.47;;;;;;;;;;4181235;28;20471;-68
2024/01/23 05:51:55;;;;;;;31.40;30.48;;;;;;;;;;4173482;28;20337;-68
2024/01/23 05:53:57;;;;;;;34.53;33.05;;;;;;;;;;4164668;28;20107;-68
2024/01/23 05:55:58;;;;;;;31.20;30.08;;;;;;;;;;4164797;28;20083;-68
2024/01/23 05:58:00;;;;;;;31.27;30.43;;;;;;;;;;4164737;28;20042;-68
2024/01/23 06:00:05;;;;;;;33.95;32.83;;;;;;;;;;4164689;28;20064;-68
2024/01/23 06:02:08;;;;;;;32.97;31.90;;;;;;;;;;4198899;28;20119;-68
2024/01/23 06:04:10;;;;;;;;;;;;;;;;;;4214597;28;20050;-68
2024/01/23 06:06:14;;;;;;;32.78;31.33;;;;;;;;;;4196110;28;19947;-67
2024/01/23 06:08:16;;;;;;;34.58;33.08;;;;;;;;;;4195743;28;20106;-68
2024/01/23 06:10:21;;;;;;;37.72;36.22;;;;;;;;;;4214328;28;20074;-67
2024/01/23 06:12:23;;;;;;;35.90;34.53;;;;;;;;;;4196290;28;20115;-68
2024/01/23 06:14:25;;;;;;;36.33;34.60;;;;;;;;;;4213978;28;20038;-68
2024/01/23 06:16:27;;;;;;;33.97;32.93;;;;;;;;;;4204258;28;20525;-68
2024/01/23 06:18:30;;;;;;;32.25;31.05;;;;;;;;;;4200452;28;20289;-68
2024/01/23 06:20:32;;;;;;;33.88;32.70;;;;;;;;;;4195431;28;20049;-63
2024/01/23 06:22:34;;;;;;;35.88;34.70;;;;;;;;;;4214189;28;20046;-64
2024/01/23 06:24:36;;;;;;;37.80;36.40;;;;;;;;;;4213700;28;20100;-63
2024/01/23 06:26:38;;;;;;;38.78;36.28;;;;;;;;;;4196116;28;20033;-65
2024/01/23 06:28:40;;;;;;;39.08;37.03;;;;;;;;;;4214235;28;20426;-63
2024/01/23 06:30:41;;;;;;;37.83;36.10;;;;;;;;;;4213664;28;20131;-63
2024/01/23 06:32:43;;;;;;;35.33;34.05;;;;;;;;;;4196239;28;20033;-63
2024/01/23 06:34:45;;;;;;;36.70;35.20;;;;;;;;;;4214210;28;20127;-64
2024/01/23 06:36:47;;;;;;;34.23;32.73;;;;;;;;;;4214147;28;20036;-64
2024/01/23 06:38:49;;;;;;;35.78;34.42;;;;;;;;;;4214147;28;20040;-64
2024/01/23 06:40:51;;;;;;;34.40;33.30;;;;;;;;;;4214188;28;20149;-64
2024/01/23 06:42:52;;;;;;;35.87;34.33;;;;;;;;;;4213974;28;20050;-63
2024/01/23 06:44:54;;;;;;;38.17;36.73;;;;;;;;;;4214125;28;20118;-63
2024/01/23 06:46:56;;;;;;;32.83;31.83;;;;;;;;;;4209089;28;20372;-62
2024/01/23 06:48:58;;;;;;;38.03;36.30;;;;;;;;;;4208081;28;20304;-62
2024/01/23 06:50:59;;;;;;;37.93;36.23;;;;;;;;;;4196572;28;20049;-63
2024/01/23 06:53:01;;;;;;;40.53;38.58;;;;;;;;;;4196401;28;20556;-63
2024/01/23 06:55:03;;;;;;;36.78;35.17;;;;;;;;;;4199437;28;20040;-62
2024/01/23 06:57:05;;;;;;;38.97;37.10;;;;;;;;;;4191907;28;20051;-62
2024/01/23 06:59:09;;;;;;;36.23;34.40;;;;;;;;;;4213900;28;20070;-63
2024/01/23 07:01:11;;;;;;;36.03;34.80;;;;;;;;;;4202370;28;20048;-63
2024/01/23 07:03:13;;;;;;;35.97;34.10;;;;;;;;;;4209933;28;20127;-62
2024/01/23 07:05:19;;;;;;;46.22;43.45;;;;;;;;;;4213045;28;20101;-62
2024/01/23 07:07:23;;;;;;;40.97;38.83;;;;;;;;;;4206026;28;20075;-64
2024/01/23 07:09:25;;;;;;;42.45;39.92;;;;;;;;;;4208047;28;20290;-62
2024/01/23 07:11:27;;;;;;;45.80;43.10;;;;;;;;;;4213370;28;20068;-63
2024/01/23 07:13:29;;;;;;;46.58;43.60;;;;;;;;;;4195404;28;20238;-63
2024/01/23 07:15:31;;;;;;;39.13;36.70;;;;;;;;;;4203015;28;20383;-62
2024/01/23 07:17:33;;;;;;;38.67;36.60;;;;;;;;;;4196707;28;20066;-62
2024/01/23 07:19:34;;;;;;;40.27;38.10;;;;;;;;;;4199698;28;20304;-63
2024/01/23 07:21:37;;;;;;;40.45;38.53;;;;;;;;;;4211349;28;20040;-63
2024/01/23 07:23:38;;;;;;;38.88;37.00;;;;;;;;;;4213302;28;20040;-62
2024/01/23 07:25:40;;;;;;;35.40;33.80;;;;;;;;;;4203788;28;20044;-62
2024/01/23 07:27:42;;;;;;;40.40;38.30;;;;;;;;;;4216150;28;20039;-63
2024/01/23 07:29:43;;;;;;;42.17;40.10;;;;;;;;;;4212495;28;20439;-63
2024/01/23 07:31:45;;;;;;;43.40;41.10;;;;;;;;;;4201102;28;20124;-62
2024/01/23 07:33:47;;;;;;;40.97;38.67;;;;;;;;;;4184184;28;20130;-62
2024/01/23 07:35:52;;;;;;;41.03;38.87;;;;;;;;;;4181212;28;20075;-63
2024/01/23 07:37:53;;;;;;;39.95;37.38;;;;;;;;;;4203678;28;20282;-62
2024/01/23 07:39:55;;;;;;;39.40;37.33;;;;;;;;;;4204233;28;20037;-62
2024/01/23 07:41:58;;;;;;;40.85;38.50;;;;;;;;;;4201864;28;20293;-62
2024/01/23 07:43:59;;;;;;;37.85;35.97;;;;;;;;;;4210510;28;20047;-64
2024/01/23 07:46:01;;;;;;;38.85;37.25;;;;;;;;;;4214684;28;20040;-62
2024/01/23 07:48:03;;;;;;;40.47;38.47;;;;;;;;;;4191687;28;20033;-64
2024/01/23 07:50:07;;;;;;;37.80;36.30;;;;;;;;;;4198799;28;20044;-63
2024/01/23 07:52:09;;;;;;;39.60;37.75;;;;;;;;;;4198345;28;20535;-63
2024/01/23 07:59:17;;;;;;;39.58;37.85;;;;;;;;;;4241355;27;20421;-62
2024/01/23 08:01:19;;;;;;;42.30;40.60;;;;;;;;;;4225783;28;20038;-63
2024/01/23 08:03:21;;;;;;;39.10;37.75;;;;;;;;;;4227942;28;20071;-63
2024/01/23 08:05:23;;;;;;;39.22;37.00;;;;;;;;;;4227148;28;20043;-62
2024/01/23 08:07:25;;;;;;;39.83;38.00;;;;;;;;;;4227585;28;20478;-62
2024/01/23 08:09:26;;;;;;;39.13;37.25;;;;;;;;;;4225955;28;20044;-62
2024/01/23 08:11:28;;;;;;;40.45;38.47;;;;;;;;;;4221112;28;20491;-63
2024/01/23 08:13:30;;;;;;;41.78;39.40;;;;;;;;;;4228368;28;20475;-63
2024/01/23 08:15:32;;;;;;;40.07;38.13;;;;;;;;;;4227572;28;20126;-63
2024/01/23 08:17:33;;;;;;;40.38;38.20;;;;;;;;;;4228096;28;20044;-64
2024/01/23 08:19:37;;;;;;;37.67;36.00;;;;;;;;;;4227524;28;20082;-63
2024/01/23 08:21:39;;;;;;;37.20;35.20;;;;;;;;;;4228202;28;20024;-64
2024/01/23 08:23:41;;;;;;;38.35;36.47;;;;;;;;;;4228247;28;20093;-64
2024/01/23 08:25:45;;;;;;;38.63;36.93;;;;;;;;;;4228206;28;20040;-63
2024/01/23 08:27:46;;;;;;;39.42;37.78;;;;;;;;;;4227952;28;20050;-63
2024/01/23 08:29:48;;;;;;;41.90;39.67;;;;;;;;;;4226826;28;20521;-63
2024/01/23 08:31:50;;;;;;;41.88;39.97;;;;;;;;;;4227870;28;20046;-64
2024/01/23 08:33:52;;;;;;;38.42;37.00;;;;;;;;;;4228033;28;20115;-64
2024/01/23 08:35:54;;;;;;;38.35;36.58;;;;;;;;;;4228051;28;20118;-64
2024/01/23 08:37:58;;;;;;;37.97;35.92;;;;;;;;;;4227773;28;20074;-64
2024/01/23 08:40:00;;;;;;;36.75;34.97;;;;;;;;;;4212491;28;20041;-63
2024/01/23 08:42:01;;;;;;;35.97;34.58;;;;;;;;;;4216990;28;20036;-64
2024/01/23 08:44:03;;;;;;;37.65;35.70;;;;;;;;;;4227720;28;20272;-63
2024/01/23 08:46:05;;;;;;;40.63;38.33;;;;;;;;;;4227933;28;20498;-64
2024/01/23 08:48:07;;;;;;;36.70;35.17;;;;;;;;;;4227839;28;20039;-63
2024/01/23 08:50:09;;;;;;;36.17;34.65;;;;;;;;;;4227746;28;20054;-63
2024/01/23 08:52:10;;;;;;;35.15;33.65;;;;;;;;;;4227812;28;20066;-63
2024/01/23 08:54:18;;;;;;;35.55;34.28;;;;;;;;;;4227662;28;20605;-64
2024/01/23 08:56:24;;;;;;;36.45;34.85;;;;;;;;;;4227714;28;20040;-63
2024/01/23 08:58:26;;;;;;;36.42;35.13;;;;;;;;;;4225957;28;20052;-64
2024/01/23 09:00:28;;;;;;;40.60;37.90;;;;;;;;;;4227108;28;20032;-64
2024/01/23 09:02:29;;;;;;;37.97;36.20;;;;;;;;;;4227522;28;20043;-64
2024/01/23 09:04:31;;;;;;;36.33;34.60;;;;;;;;;;4227530;28;20039;-63
2024/01/23 09:06:33;;;;;;;34.27;32.87;;;;;;;;;;4227526;28;20101;-64
2024/01/23 12:13:50;;;;;;;11.63;11.32;;;;;;;;;;4233872;27;20899;-64
2024/01/23 12:16:11;;;;;;;9.90;9.65;;;;;;;;;;4220085;28;20085;-63
2024/01/23 12:18:34;;;;;;;12.40;12.00;;;;;;;;;;4218415;28;20509;-64
2024/01/23 12:20:56;;;;;;;;;;;;;;;;;;4217124;28;20056;-64
2024/01/23 12:23:22;;;;;;;10.98;10.77;;;;;;;;;;4219044;28;20419;-63
2024/01/23 12:25:43;;;;;;;9.23;9.00;;;;;;;;;;4222585;28;20606;-64
2024/01/23 12:28:06;;;;;;;8.00;7.80;;;;;;;;;;4220600;28;20063;-64
2024/01/23 12:30:28;;;;;;;8.25;7.88;;;;;;;;;;4215455;28;20125;-64
2024/01/23 12:32:50;;;;;;;9.23;9.07;;;;;;;;;;4195422;28;20490;-66
2024/01/23 12:35:15;;;;;;;11.98;11.68;;;;;;;;;;4211328;28;20190;-66
2024/01/23 12:37:38;;;;;;;12.38;12.07;;;;;;;;;;4224947;28;20050;-66
2024/01/23 12:40:08;;;;;;;13.15;12.90;;;;;;;;;;4227203;28;20050;-66
2024/01/23 12:42:36;;;;;;;14.30;14.10;;;;;;;;;;4210123;28;20119;-72
2024/01/23 12:44:57;;;;;;;14.57;13.98;;;;;;;;;;4203399;28;20055;-72
2024/01/23 12:47:19;;;;;;;;;;;;;;;;;;4194836;28;20047;-73
2024/01/23 12:49:40;;;;;;;11.90;11.40;;;;;;;;;;4194283;28;20406;-73
2024/01/23 12:52:00;;;;;;;8.38;8.00;;;;;;;;;;4210267;28;20059;-73
2024/01/23 12:54:17;;;;;;;8.07;7.88;;;;;;;;;;4210216;28;20047;-72
2024/01/23 12:56:18;;;;;;;6.78;6.57;;;;;;;;;;4201962;28;20048;-73
2024/01/23 12:58:20;;;;;;;6.97;6.87;;;;;;;;;;4193384;28;20060;-72
2024/01/23 13:00:25;;;;;;;7.47;7.28;;;;;;;;;;4193687;28;20088;-72
2024/01/23 13:02:26;;;;;;;8.98;8.73;;;;;;;;;;4193781;28;20049;-73
2024/01/23 13:04:34;;;;;;;11.43;11.02;;;;;;;;;;4193703;28;20072;-72
2024/01/23 13:06:36;;;;;;;;;;;;;;;;;;4194525;28;20120;-73
2024/01/23 13:08:41;;;;;;;15.75;15.35;;;;;;;;;;4176348;28;20400;-73
2024/01/23 13:10:45;;;;;;;15.23;14.95;;;;;;;;;;4191955;28;20040;-73
2024/01/23 13:12:51;;;;;;;16.85;16.30;;;;;;;;;;4184297;28;20440;-73
2024/01/23 13:15:08;;;;;;;16.02;15.48;;;;;;;;;;4190593;28;20490;-72
2024/01/23 13:17:11;;;;;;;13.77;13.48;;;;;;;;;;4187820;28;20123;-72
2024/01/23 13:19:13;;;;;;;13.70;13.27;;;;;;;;;;4193539;28;20037;-73
2024/01/23 13:21:15;;;;;;;12.30;11.98;;;;;;;;;;4191172;28;20037;-72
2024/01/23 13:23:20;;;;;;;13.13;12.82;;;;;;;;;;4193075;28;20036;-73
2024/01/23 13:25:26;;;;;;;9.63;9.43;;;;;;;;;;4129564;28;20108;-73
2024/01/23 13:27:31;;;;;;;10.23;9.82;;;;;;;;;;4182796;28;20072;-72
2024/01/23 13:29:36;;;;;;;7.22;7.13;;;;;;;;;;4182533;28;20045;-72
2024/01/23 13:31:40;;;;;;;8.23;8.07;;;;;;;;;;4179361;28;20053;-72
2024/01/23 13:33:42;;;;;;;9.57;9.38;;;;;;;;;;4178807;28;20033;-72
2024/01/23 13:35:44;;;;;;;10.68;10.30;;;;;;;;;;4179880;28;20043;-73
2024/01/23 13:37:49;;;;;;;14.05;13.32;;;;;;;;;;4177591;28;20041;-68
2024/01/23 13:39:52;;;;;;;12.40;12.00;;;;;;;;;;4180800;28;20091;-68
2024/01/23 13:41:57;;;;;;;12.52;12.23;;;;;;;;;;4181388;28;20107;-68
2024/01/23 13:44:01;;;;;;;14.27;14.10;;;;;;;;;;4164462;28;20080;-68
2024/01/23 13:46:05;;;;;;;14.52;14.43;;;;;;;;;;4169173;28;20046;-68
2024/01/23 13:48:07;;;;;;;14.77;14.50;;;;;;;;;;4174082;28;20051;-68
2024/01/23 13:50:09;;;;;;;15.32;14.50;;;;;;;;;;4166255;28;20136;-68
2024/01/23 13:52:11;;;;;;;15.02;14.63;;;;;;;;;;4181890;28;20048;-68
2024/01/23 13:54:15;;;;;;;13.63;13.20;;;;;;;;;;4179123;28;20037;-69
2024/01/23 13:56:19;;;;;;;15.10;14.73;;;;;;;;;;4175819;28;20125;-68
2024/01/23 13:58:23;;;;;;;13.95;13.55;;;;;;;;;;4166301;28;20048;-68
2024/01/23 14:00:26;;;;;;;12.02;11.90;;;;;;;;;;4169849;28;20111;-69
2024/01/23 14:02:31;;;;;;;12.18;11.98;;;;;;;;;;4177902;28;20049;-69
2024/01/23 14:04:34;;;;;;;13.55;13.13;;;;;;;;;;4181902;28;20395;-69
2024/01/23 14:06:41;;;;;;;11.48;11.10;;;;;;;;;;4166326;28;20048;-69
2024/01/23 14:08:46;;;;;;;9.32;9.02;;;;;;;;;;4168634;28;20124;-69
2024/01/23 14:10:47;;;;;;;10.02;9.73;;;;;;;;;;4155839;28;20038;-69
2024/01/23 14:12:52;;;;;;;12.23;11.82;;;;;;;;;;4145597;28;20054;-68
2024/01/23 14:14:59;;;;;;;10.90;10.60;;;;;;;;;;4135835;28;20046;-69
2024/01/23 14:17:01;;;;;;;11.02;10.82;;;;;;;;;;4132769;28;20038;-68
2024/01/23 14:19:04;;;;;;;9.85;9.65;;;;;;;;;;4142651;28;20541;-69
2024/01/23 14:21:07;;;;;;;9.75;9.52;;;;;;;;;;4143011;28;20072;-68
2024/01/23 14:23:14;;;;;;;10.82;10.52;;;;;;;;;;4128714;28;20465;-69
2024/01/23 14:25:20;;;;;;;11.48;11.18;;;;;;;;;;4114732;28;20047;-69
2024/01/23 14:27:24;;;;;;;10.80;10.55;;;;;;;;;;4114720;28;20071;-68
2024/01/23 14:29:29;;;;;;;10.75;10.43;;;;;;;;;;4131715;28;20521;-68
2024/01/23 14:31:32;;;;;;;12.43;11.70;;;;;;;;;;4130704;28;20038;-69
2024/01/23 14:33:34;;;;;;;14.35;13.65;;;;;;;;;;4114843;28;20093;-69
2024/01/23 14:35:36;;;;;;;14.00;13.52;;;;;;;;;;4110508;28;20057;-69
2024/01/23 14:37:41;;;;;;;15.15;14.48;;;;;;;;;;4130137;28;20047;-69
2024/01/23 14:39:43;;;;;;;15.90;15.10;;;;;;;;;;4136957;28;20111;-68
2024/01/23 14:41:47;;;;;;;15.27;14.77;;;;;;;;;;4130749;28;20058;-69
2024/01/23 14:43:51;;;;;;;15.45;14.98;;;;;;;;;;4135748;28;20057;-68
2024/01/23 14:45:53;;;;;;;17.17;16.70;;;;;;;;;;4147844;28;20469;-69
2024/01/23 14:47:58;;;;;;;19.42;18.63;;;;;;;;;;4104057;28;20046;-69
2024/01/23 14:50:00;;;;;;;19.48;18.75;;;;;;;;;;4133453;28;20081;-68
2024/01/23 14:52:02;;;;;;;19.30;18.67;;;;;;;;;;4136225;28;20100;-69
2024/01/23 14:54:04;;;;;;;17.98;17.35;;;;;;;;;;4124664;28;20076;-69
2024/01/23 14:56:08;;;;;;;17.85;17.35;;;;;;;;;;4122684;28;20046;-69
2024/01/23 14:58:10;;;;;;;27.15;25.65;;;;;;;;;;4127066;28;20045;-68
2024/01/23 15:00:13;;;;;;;24.45;23.02;;;;;;;;;;4127674;28;20046;-69
2024/01/23 15:02:15;;;;;;;20.33;19.55;;;;;;;;;;4126321;28;20050;-69
2024/01/23 15:04:18;;;;;;;21.13;19.80;;;;;;;;;;4115518;28;20308;-68
2024/01/23 15:06:20;;;;;;;18.52;17.65;;;;;;;;;;4108254;28;20050;-68
2024/01/23 15:08:22;;;;;;;24.20;22.38;;;;;;;;;;4130036;28;20453;-68
2024/01/23 15:10:24;;;;;;;16.40;15.50;;;;;;;;;;4110064;28;20062;-68
2024/01/23 15:12:25;;;;;;;16.47;15.70;;;;;;;;;;4127047;28;20420;-68